Time;durP1;ratioP1;P1;durP2;ratioP2;P2;SDS_P1;SDS_P2;PMS_P1;PMS_P2;Temp;Humidity;BMP_temperature;BMP_pressure;BME280_temperature;BME280_humidity;BME280_pressure;Samples;Min_cycle;Max_cycle;Signal;HPM_P1;HPM_P2
2021/12/29 00:00:21;;;;;;;9.17;1.60;;;7.40;99.90;;;;;;5103968;28;20757;-43
2021/12/29 00:02:48;;;;;;;2.53;1.30;;;7.40;99.90;;;;;;5121576;28;20465;-45
2021/12/29 00:05:14;;;;;;;6.53;1.70;;;7.40;99.90;;;;;;5121592;28;20406;-43
2021/12/29 00:07:40;;;;;;;5.70;1.20;;;7.40;99.90;;;;;;5118997;28;20453;-43
2021/12/29 00:10:10;;;;;;;4.90;1.67;;;7.40;99.90;;;;;;5119852;28;20410;-43
2021/12/29 00:12:41;;;;;;;4.40;1.20;;;7.40;99.90;;;;;;5120147;28;20426;-43
2021/12/29 00:15:11;;;;;;;4.70;1.87;;;7.40;99.90;;;;;;5120386;28;20424;-44
2021/12/29 00:17:39;;;;;;;6.20;1.30;;;7.40;99.90;;;;;;5119021;28;20824;-41
2021/12/29 00:20:07;;;;;;;6.00;1.83;;;7.40;99.90;;;;;;5119730;28;20421;-43
2021/12/29 00:22:33;;;;;;;8.43;1.77;;;7.40;99.90;;;;;;5119781;28;20607;-43
2021/12/29 00:24:59;;;;;;;4.43;1.17;;;7.40;99.90;;;;;;5120471;28;20402;-41
2021/12/29 00:27:25;;;;;;;5.80;1.50;;;7.40;99.90;;;;;;5120448;28;21034;-43
2021/12/29 00:29:51;;;;;;;8.00;1.70;;;7.40;99.90;;;;;;5120577;28;20266;-42
2021/12/29 00:32:16;;;;;;;9.10;1.53;;;7.40;99.90;;;;;;5121128;28;20180;-43
2021/12/29 00:34:44;;;;;;;5.43;1.60;;;7.40;99.90;;;;;;5120106;28;20172;-43
2021/12/29 00:37:10;;;;;;;4.50;1.87;;;7.30;99.90;;;;;;5119187;28;20262;-43
2021/12/29 00:39:35;;;;;;;4.80;1.20;;;7.30;99.90;;;;;;5119187;28;20887;-42
2021/12/29 00:42:01;;;;;;;4.47;1.33;;;7.30;99.90;;;;;;5101695;28;20310;-42
2021/12/29 00:44:30;;;;;;;7.27;2.23;;;7.30;99.90;;;;;;5120433;28;20233;-42
2021/12/29 00:46:56;;;;;;;5.23;1.50;;;7.30;99.90;;;;;;5120083;28;20465;-42
2021/12/29 00:49:24;;;;;;;8.20;1.93;;;7.30;99.90;;;;;;5119531;28;20862;-42
2021/12/29 00:51:50;;;;;;;5.97;1.30;;;7.30;99.90;;;;;;5119122;28;20245;-43
2021/12/29 00:54:17;;;;;;;4.73;1.53;;;7.30;99.90;;;;;;5119920;28;20418;-44
2021/12/29 00:56:45;;;;;;;3.30;1.37;;;7.30;99.90;;;;;;5120827;28;20183;-44
2021/12/29 00:59:11;;;;;;;3.93;1.20;;;7.30;99.90;;;;;;5120444;28;20457;-44
2021/12/29 01:01:37;;;;;;;4.03;1.20;;;7.30;99.90;;;;;;5120428;28;20512;-42
2021/12/29 01:04:03;;;;;;;3.23;1.10;;;7.30;99.90;;;;;;5119847;28;20168;-43
2021/12/29 01:06:29;;;;;;;3.70;1.07;;;7.30;99.90;;;;;;5119552;28;20181;-44
2021/12/29 01:08:54;;;;;;;6.30;1.50;;;7.30;99.90;;;;;;5119525;28;20669;-44
2021/12/29 01:11:20;;;;;;;3.30;1.00;;;7.40;99.90;;;;;;5119397;28;20266;-43
2021/12/29 01:13:48;;;;;;;5.23;1.40;;;7.40;99.90;;;;;;5119500;28;20251;-44
2021/12/29 01:19:05;;;;;;;2.10;0.80;;;7.50;99.90;;;;;;5118222;28;20708;-44
2021/12/29 01:21:31;;;;;;;2.13;0.97;;;7.50;99.90;;;;;;5118313;28;20470;-42
2021/12/29 01:23:59;;;;;;;1.80;0.60;;;7.50;99.90;;;;;;5118867;28;20433;-43
2021/12/29 01:26:25;;;;;;;5.37;0.90;;;7.50;99.90;;;;;;5118196;28;20426;-42
2021/12/29 01:28:51;;;;;;;1.97;0.80;;;7.50;99.90;;;;;;5118754;28;20766;-43
2021/12/29 01:31:17;;;;;;;3.03;0.87;;;7.60;99.90;;;;;;5119615;28;20194;-44
2021/12/29 01:33:42;;;;;;;4.40;0.90;;;7.60;99.90;;;;;;5119838;28;20609;-44
2021/12/29 01:36:08;;;;;;;2.03;0.90;;;7.60;99.90;;;;;;5119819;28;20475;-44
2021/12/29 01:38:34;;;;;;;2.13;0.60;;;7.60;99.90;;;;;;5120018;28;20180;-44
2021/12/29 01:41:00;;;;;;;1.53;0.77;;;7.60;99.90;;;;;;5119475;28;20816;-44
2021/12/29 01:43:25;;;;;;;2.07;0.70;;;7.60;99.90;;;;;;5119868;28;20183;-43
2021/12/29 01:45:51;;;;;;;2.03;0.60;;;7.60;99.90;;;;;;5119651;28;20180;-42
2021/12/29 01:48:17;;;;;;;2.70;0.70;;;7.60;99.90;;;;;;5118557;28;20258;-44
2021/12/29 01:50:48;;;;;;;2.83;0.90;;;7.60;99.90;;;;;;5119458;28;20195;-44
2021/12/29 01:53:22;;;;;;;5.73;1.30;;;7.70;99.90;;;;;;5119750;28;20226;-44
2021/12/29 01:55:49;;;;;;;2.00;0.70;;;7.60;99.90;;;;;;5119090;28;20708;-44
2021/12/29 01:58:14;;;;;;;1.70;0.50;;;7.70;99.90;;;;;;5118974;28;20434;-44
2021/12/29 02:00:41;;;;;;;1.67;0.80;;;7.70;99.90;;;;;;5119087;28;20486;-44
2021/12/29 02:03:08;;;;;;;1.63;0.37;;;7.70;99.90;;;;;;5118882;28;20243;-43
2021/12/29 02:05:35;;;;;;;3.73;0.77;;;7.60;99.90;;;;;;5119309;28;20826;-43
2021/12/29 02:08:01;;;;;;;2.53;0.47;;;7.60;99.90;;;;;;5118856;28;20461;-42
2021/12/29 02:10:31;;;;;;;1.57;0.67;;;7.60;99.90;;;;;;5119108;28;20834;-44
2021/12/29 02:13:00;;;;;;;1.33;0.50;;;7.60;99.90;;;;;;5101494;28;20486;-44
2021/12/29 02:15:26;;;;;;;2.53;1.00;;;7.60;99.90;;;;;;5119380;28;20410;-43
2021/12/29 02:18:38;;;;;;;2.33;0.70;;;7.60;99.90;;;;;;5119095;28;20899;-44
2021/12/29 02:21:03;;;;;;;1.10;0.40;;;7.50;99.90;;;;;;5118843;28;20626;-44
2021/12/29 02:23:46;;;;;;;2.60;0.83;;;7.60;99.90;;;;;;5118427;28;20414;-43
2021/12/29 02:26:15;;;;;;;3.07;0.60;;;7.60;99.90;;;;;;5118503;28;20595;-43
2021/12/29 02:28:41;;;;;;;1.20;0.50;;;7.60;99.90;;;;;;5118766;28;20406;-44
2021/12/29 02:31:07;;;;;;;2.70;0.83;;;7.60;99.90;;;;;;5100710;28;20865;-43
2021/12/29 02:33:34;;;;;;;1.30;0.50;;;7.60;99.90;;;;;;5118892;28;20509;-44
2021/12/29 02:36:02;;;;;;;2.20;0.70;;;7.50;99.90;;;;;;5118595;28;20510;-44
2021/12/29 02:38:31;;;;;;;2.70;0.43;;;7.60;99.90;;;;;;5118648;28;20409;-42
2021/12/29 02:41:08;;;;;;;1.97;0.40;;;7.60;99.90;;;;;;5118656;28;20480;-44
2021/12/29 02:43:37;;;;;;;1.60;0.60;;;7.60;99.90;;;;;;5118859;28;20406;-43
2021/12/29 02:46:11;;;;;;;2.70;0.77;;;7.60;99.90;;;;;;5118299;28;20425;-44
2021/12/29 02:48:39;;;;;;;1.83;0.90;;;7.60;99.90;;;;;;5118749;28;20416;-44
2021/12/29 02:51:07;;;;;;;5.00;0.80;;;7.60;99.90;;;;;;5118714;28;20518;-44
2021/12/29 02:53:33;;;;;;;1.13;0.60;;;7.60;99.90;;;;;;5100236;28;20414;-44
2021/12/29 02:55:59;;;;;;;1.80;0.70;;;7.60;99.90;;;;;;5118489;28;20508;-44
2021/12/29 02:58:25;;;;;;;2.10;0.67;;;7.60;99.90;;;;;;5084083;28;20434;-44
2021/12/29 03:00:54;;;;;;;1.37;0.50;;;7.60;99.90;;;;;;5118049;28;20187;-43
2021/12/29 03:03:22;;;;;;;1.67;0.70;;;7.60;99.90;;;;;;5118301;28;20457;-43
2021/12/29 03:05:48;;;;;;;2.70;0.70;;;7.60;99.90;;;;;;5118400;28;20410;-42
2021/12/29 03:08:21;;;;;;;3.10;0.63;;;7.70;99.90;;;;;;5118253;28;20483;-44
2021/12/29 03:10:52;;;;;;;1.27;0.80;;;7.70;99.90;;;;;;5118208;28;20421;-43
2021/12/29 03:13:25;;;;;;;1.93;0.63;;;7.70;99.90;;;;;;5100011;28;20433;-44
2021/12/29 03:15:51;;;;;;;2.80;0.60;;;7.70;99.90;;;;;;5117514;28;20869;-44
2021/12/29 03:18:17;;;;;;;3.70;1.00;;;7.70;99.90;;;;;;5116764;28;20700;-43
2021/12/29 03:20:43;;;;;;;1.90;0.47;;;7.70;99.90;;;;;;5116671;28;20532;-42
2021/12/29 03:23:09;;;;;;;1.00;0.50;;;7.70;99.90;;;;;;5116216;28;20457;-43
2021/12/29 03:25:37;;;;;;;2.93;0.70;;;7.70;99.90;;;;;;5115385;28;20712;-42
2021/12/29 03:28:04;;;;;;;3.53;0.70;;;7.70;99.90;;;;;;5115834;28;20175;-44
2021/12/29 03:30:33;;;;;;;3.77;0.97;;;7.70;99.90;;;;;;5116299;28;20426;-43
2021/12/29 03:33:05;;;;;;;2.67;1.10;;;7.70;99.90;;;;;;5116401;28;20425;-41
2021/12/29 03:35:36;;;;;;;2.03;0.73;;;7.70;99.90;;;;;;5117252;28;20460;-44
2021/12/29 03:38:04;;;;;;;2.00;1.03;;;7.70;99.90;;;;;;5117237;28;20915;-42
2021/12/29 03:40:30;;;;;;;3.07;0.80;;;7.70;99.90;;;;;;5117854;28;20425;-41
2021/12/29 03:42:56;;;;;;;2.17;0.80;;;7.70;99.90;;;;;;5100049;28;20914;-40
2021/12/29 03:45:25;;;;;;;3.10;0.80;;;8.00;99.90;;;;;;5117678;28;20473;-42
2021/12/29 03:47:50;;;;;;;3.37;0.80;;;8.20;99.90;;;;;;5117878;28;20484;-42
2021/12/29 03:50:16;;;;;;;3.70;1.00;;;8.40;99.90;;;;;;5098841;28;20836;-42
2021/12/29 03:52:42;;;;;;;2.60;0.77;;;8.60;99.90;;;;;;5116639;28;20175;-41
2021/12/29 03:55:08;;;;;;;3.30;0.90;;;8.70;99.90;;;;;;5117207;28;20181;-44
2021/12/29 03:57:34;;;;;;;1.70;0.80;;;8.90;99.90;;;;;;5117293;28;20264;-44
2021/12/29 04:00:00;;;;;;;2.40;0.97;;;8.80;99.90;;;;;;5115549;28;20739;-44
2021/12/29 04:02:25;;;;;;;1.37;0.60;;;8.60;99.90;;;;;;5115889;28;20210;-44
2021/12/29 04:04:52;;;;;;;2.40;0.90;;;8.50;99.90;;;;;;5117387;28;20176;-43
2021/12/29 04:07:17;;;;;;;1.53;0.80;;;8.30;99.90;;;;;;5117316;28;20161;-44
2021/12/29 04:09:43;;;;;;;5.73;1.33;;;8.20;99.90;;;;;;5117067;28;20741;-44
2021/12/29 04:12:09;;;;;;;2.63;1.20;;;8.00;99.90;;;;;;5119224;28;20497;-44
2021/12/29 04:14:35;;;;;;;3.40;0.90;;;8.00;99.90;;;;;;5120218;28;20252;-42
2021/12/29 04:17:08;;;;;;;3.50;1.53;;;8.00;99.90;;;;;;5121575;28;20421;-44
2021/12/29 04:22:19;;;;;;;2.87;0.67;;;7.90;99.90;;;;;;5121094;28;20545;-44
2021/12/29 04:24:45;;;;;;;2.13;0.70;;;7.90;99.90;;;;;;5121066;28;20406;-44
2021/12/29 04:27:11;;;;;;;2.20;0.97;;;7.90;99.90;;;;;;5121225;28;20195;-44
2021/12/29 04:29:38;;;;;;;4.80;1.03;;;7.80;99.90;;;;;;5120266;28;20253;-45
2021/12/29 04:32:04;;;;;;;2.27;0.80;;;7.80;99.90;;;;;;5120605;28;20176;-43
2021/12/29 04:34:30;;;;;;;3.83;1.13;;;7.80;99.90;;;;;;5103224;28;20416;-51
2021/12/29 04:36:55;;;;;;;1.90;0.70;;;7.80;99.90;;;;;;5119652;28;20188;-44
2021/12/29 04:39:21;;;;;;;5.63;0.80;;;7.80;99.90;;;;;;5120394;28;20188;-44
2021/12/29 04:41:47;;;;;;;2.73;0.90;;;7.80;99.90;;;;;;5121076;28;20279;-44
2021/12/29 04:44:12;;;;;;;2.77;0.73;;;7.80;99.90;;;;;;5120732;28;20329;-44
2021/12/29 04:46:40;;;;;;;3.00;0.87;;;7.90;99.90;;;;;;5102698;28;20247;-43
2021/12/29 04:49:10;;;;;;;3.23;0.67;;;7.90;99.90;;;;;;5120506;28;20175;-44
2021/12/29 04:51:36;;;;;;;3.17;1.30;;;7.80;99.90;;;;;;5100770;28;20689;-44
2021/12/29 04:54:07;;;;;;;3.53;1.07;;;7.80;99.90;;;;;;5119078;28;20421;-44
2021/12/29 04:56:33;;;;;;;2.90;1.00;;;7.90;99.90;;;;;;5119098;28;20523;-44
2021/12/29 04:58:58;;;;;;;4.23;1.03;;;7.90;99.90;;;;;;5118898;28;20418;-44
2021/12/29 05:01:24;;;;;;;1.23;0.63;;;7.90;99.90;;;;;;5118341;28;20461;-44
2021/12/29 05:03:52;;;;;;;3.07;1.20;;;7.90;99.90;;;;;;5118967;28;20491;-46
2021/12/29 05:09:02;;;;;;;3.03;0.80;;;7.80;99.90;;;;;;5117842;28;20793;-46
2021/12/29 05:11:28;;;;;;;2.90;1.00;;;7.90;99.90;;;;;;5118036;28;20913;-46
2021/12/29 05:13:55;;;;;;;3.60;1.30;;;7.80;99.90;;;;;;5118833;28;20194;-46
2021/12/29 05:16:22;;;;;;;2.00;0.80;;;7.90;99.90;;;;;;5118821;28;20233;-46
2021/12/29 05:18:48;;;;;;;2.67;0.90;;;7.90;99.90;;;;;;5118309;28;20440;-46
2021/12/29 05:21:13;;;;;;;2.50;0.97;;;7.80;99.90;;;;;;5118380;28;20422;-46
2021/12/29 05:23:39;;;;;;;2.67;0.97;;;7.80;99.90;;;;;;5119435;28;20187;-46
2021/12/29 05:26:05;;;;;;;2.00;0.90;;;7.80;99.90;;;;;;5119929;28;20485;-46
2021/12/29 05:28:30;;;;;;;2.67;0.90;;;7.80;99.90;;;;;;5119422;28;20195;-46
2021/12/29 05:30:59;;;;;;;2.77;1.00;;;7.80;99.90;;;;;;5119424;28;20176;-46
2021/12/29 05:33:25;;;;;;;1.80;0.60;;;7.80;99.90;;;;;;5119867;28;20199;-46
2021/12/29 05:35:51;;;;;;;2.37;0.80;;;7.70;99.90;;;;;;5119442;28;20426;-46
2021/12/29 05:38:17;;;;;;;2.07;0.80;;;7.80;99.90;;;;;;5119891;28;20558;-46
2021/12/29 05:40:42;;;;;;;2.83;0.73;;;7.80;99.90;;;;;;5119961;28;20190;-46
2021/12/29 05:43:08;;;;;;;4.17;1.07;;;7.80;99.90;;;;;;5101773;28;20476;-46
2021/12/29 05:45:34;;;;;;;3.07;0.80;;;7.80;99.90;;;;;;5118711;28;20179;-46
2021/12/29 05:48:01;;;;;;;2.80;0.70;;;7.70;99.90;;;;;;5118349;28;21158;-46
2021/12/29 05:50:31;;;;;;;2.40;0.70;;;7.80;99.90;;;;;;5100322;28;20229;-46
2021/12/29 05:52:58;;;;;;;1.77;0.83;;;7.70;99.90;;;;;;5118402;28;20437;-46
2021/12/29 05:55:24;;;;;;;3.00;0.87;;;7.70;99.90;;;;;;5118479;28;20422;-46
2021/12/29 05:57:50;;;;;;;3.57;0.83;;;7.70;99.90;;;;;;5118260;28;20536;-46
2021/12/29 06:00:20;;;;;;;2.33;0.63;;;7.70;99.90;;;;;;5118815;28;20512;-46
2021/12/29 06:02:46;;;;;;;2.23;0.77;;;7.70;99.90;;;;;;5118871;28;20549;-46
2021/12/29 06:05:19;;;;;;;2.40;0.80;;;7.80;99.90;;;;;;5119205;28;20417;-46
2021/12/29 06:07:44;;;;;;;1.00;0.60;;;7.70;99.90;;;;;;5100758;28;20796;-46
2021/12/29 06:10:11;;;;;;;1.30;0.73;;;7.70;99.90;;;;;;5117942;28;20490;-46
2021/12/29 06:12:38;;;;;;;4.10;1.10;;;7.60;99.90;;;;;;5117859;28;20184;-45
2021/12/29 06:15:06;;;;;;;3.53;0.90;;;7.70;99.90;;;;;;5117513;28;20444;-46
2021/12/29 06:17:32;;;;;;;2.60;0.80;;;7.70;99.90;;;;;;5116869;28;20845;-46
2021/12/29 06:20:00;;;;;;;2.80;0.87;;;7.60;99.90;;;;;;5116798;28;20469;-46
2021/12/29 06:22:26;;;;;;;1.90;0.67;;;7.60;99.90;;;;;;5099016;28;20623;-46
2021/12/29 06:24:52;;;;;;;3.00;0.70;;;7.60;99.90;;;;;;5117701;28;20434;-46
2021/12/29 06:27:20;;;;;;;2.73;0.80;;;7.60;99.90;;;;;;5117252;28;20218;-46
2021/12/29 06:29:45;;;;;;;2.80;0.80;;;7.70;99.90;;;;;;5117067;28;20426;-46
2021/12/29 06:32:11;;;;;;;3.00;0.63;;;7.60;99.90;;;;;;5117181;28;20432;-46
2021/12/29 06:34:37;;;;;;;2.33;0.67;;;7.60;99.90;;;;;;5116440;28;20278;-46
2021/12/29 06:37:08;;;;;;;1.60;0.60;;;7.60;99.90;;;;;;5098635;28;20528;-46
2021/12/29 06:39:43;;;;;;;2.53;0.73;;;7.60;99.90;;;;;;5099173;28;20176;-46
2021/12/29 06:42:09;;;;;;;2.70;0.60;;;7.70;99.90;;;;;;5117344;28;20469;-46
2021/12/29 06:44:35;;;;;;;2.10;0.70;;;7.70;99.90;;;;;;5116700;28;20478;-46
2021/12/29 06:47:01;;;;;;;2.00;0.87;;;7.70;99.90;;;;;;5117107;28;20469;-46
2021/12/29 06:49:27;;;;;;;3.20;0.77;;;7.60;99.90;;;;;;5117608;28;20453;-46
2021/12/29 06:51:52;;;;;;;4.30;1.50;;;7.60;99.90;;;;;;5116981;28;20176;-46
2021/12/29 06:54:18;;;;;;;2.40;0.87;;;7.60;99.90;;;;;;5116675;28;20328;-46
2021/12/29 06:56:44;;;;;;;2.43;0.70;;;7.60;99.90;;;;;;5117300;28;20176;-46
2021/12/29 06:59:09;;;;;;;3.23;0.70;;;7.60;99.90;;;;;;5117254;28;20199;-46
2021/12/29 07:01:35;;;;;;;1.33;0.80;;;7.60;99.90;;;;;;5117634;28;20218;-46
2021/12/29 07:04:00;;;;;;;4.23;1.30;;;7.70;99.90;;;;;;5118070;28;20189;-46
2021/12/29 07:06:26;;;;;;;2.40;1.03;;;7.60;99.90;;;;;;5117810;28;20180;-46
2021/12/29 07:08:52;;;;;;;1.37;0.77;;;7.60;99.90;;;;;;5117759;28;20184;-46
2021/12/29 07:11:17;;;;;;;2.27;0.70;;;7.60;99.90;;;;;;5117628;28;20176;-46
2021/12/29 07:13:44;;;;;;;3.40;1.17;;;7.60;99.90;;;;;;5117893;28;20179;-46
2021/12/29 07:16:11;;;;;;;3.03;1.10;;;7.60;99.90;;;;;;5117915;28;20739;-46
2021/12/29 07:18:36;;;;;;;3.37;1.00;;;7.60;99.90;;;;;;5116844;28;20758;-46
2021/12/29 07:21:03;;;;;;;2.13;0.60;;;7.60;99.90;;;;;;5116472;28;20453;-46
2021/12/29 07:23:29;;;;;;;1.93;0.90;;;7.50;99.90;;;;;;5116097;28;20572;-46
2021/12/29 07:25:54;;;;;;;2.50;0.80;;;7.50;99.90;;;;;;5116696;28;20410;-46
2021/12/29 07:28:20;;;;;;;2.80;1.07;;;7.50;99.90;;;;;;5096943;28;20846;-46
2021/12/29 07:30:46;;;;;;;2.20;0.87;;;7.60;99.90;;;;;;5114543;28;20199;-46
2021/12/29 07:33:11;;;;;;;3.00;0.70;;;7.60;99.90;;;;;;5116810;28;20218;-46
2021/12/29 07:35:37;;;;;;;1.23;0.60;;;7.60;99.90;;;;;;5117239;28;20180;-46
2021/12/29 07:38:02;;;;;;;2.77;0.80;;;7.60;99.90;;;;;;5115222;28;20542;-46
2021/12/29 07:40:28;;;;;;;1.90;0.80;;;7.60;99.90;;;;;;5114923;28;20184;-46
2021/12/29 07:42:54;;;;;;;3.07;1.00;;;7.60;99.90;;;;;;5114338;28;20250;-46
2021/12/29 07:45:19;;;;;;;2.10;0.90;;;7.60;99.90;;;;;;5114913;28;20257;-46
2021/12/29 07:47:47;;;;;;;1.83;0.90;;;7.50;99.90;;;;;;5118717;28;20342;-46
2021/12/29 07:50:17;;;;;;;1.70;1.10;;;7.60;99.90;;;;;;5118851;28;20642;-46
2021/12/29 07:52:48;;;;;;;4.23;0.80;;;7.60;99.90;;;;;;5101008;28;20441;-46
2021/12/29 07:55:18;;;;;;;2.87;1.10;;;7.60;99.90;;;;;;5103063;28;20456;-46
2021/12/29 07:57:46;;;;;;;2.93;0.90;;;7.60;99.90;;;;;;5120837;28;20422;-46
2021/12/29 08:00:14;;;;;;;2.33;0.90;;;7.70;99.90;;;;;;5120366;28;20722;-46
2021/12/29 08:02:44;;;;;;;2.30;1.10;;;7.80;99.90;;;;;;5102544;28;20962;-46
2021/12/29 08:05:11;;;;;;;1.17;0.60;;;7.80;99.90;;;;;;5120361;28;20425;-46
2021/12/29 08:07:37;;;;;;;0.90;0.60;;;7.70;99.90;;;;;;5102867;28;20836;-46
2021/12/29 08:10:06;;;;;;;2.00;0.90;;;7.70;99.90;;;;;;5120356;28;20518;-46
2021/12/29 08:12:32;;;;;;;6.57;3.97;;;7.70;99.90;;;;;;5102024;28;20712;-46
2021/12/29 08:14:58;;;;;;;2.70;1.40;;;7.80;99.90;;;;;;5117969;28;20439;-46
2021/12/29 08:17:27;;;;;;;2.10;1.10;;;7.80;99.90;;;;;;5100643;28;20410;-46
2021/12/29 08:19:53;;;;;;;4.23;1.53;;;7.80;99.90;;;;;;5118572;28;20499;-46
2021/12/29 08:22:19;;;;;;;2.80;1.10;;;7.90;99.90;;;;;;5120101;28;20468;-46
2021/12/29 08:24:45;;;;;;;3.77;1.30;;;7.90;99.90;;;;;;5101130;28;20416;-47
2021/12/29 08:27:11;;;;;;;3.60;1.40;;;8.00;99.90;;;;;;5120087;28;20680;-46
2021/12/29 08:29:36;;;;;;;4.87;1.47;;;7.90;99.90;;;;;;5119049;28;20182;-46
2021/12/29 08:32:03;;;;;;;4.47;2.03;;;7.90;99.90;;;;;;5101390;28;20421;-46
2021/12/29 08:34:28;;;;;;;2.20;1.33;;;7.90;99.90;;;;;;5118847;28;20179;-46
2021/12/29 08:36:55;;;;;;;2.73;1.20;;;7.80;99.90;;;;;;5118340;28;20507;-46
2021/12/29 08:39:21;;;;;;;2.77;1.60;;;7.90;99.90;;;;;;5100231;28;20287;-46
2021/12/29 08:41:48;;;;;;;2.60;1.20;;;8.10;99.90;;;;;;5118288;28;20579;-46
2021/12/29 08:44:14;;;;;;;3.37;1.20;;;8.20;99.90;;;;;;5118040;28;20182;-46
2021/12/29 08:46:40;;;;;;;3.80;1.20;;;8.30;99.90;;;;;;5118121;28;20553;-46
2021/12/29 08:49:06;;;;;;;3.97;1.23;;;8.40;99.90;;;;;;5116371;28;20190;-46
2021/12/29 08:51:32;;;;;;;2.07;1.57;;;8.50;99.90;;;;;;5116807;28;20506;-46
2021/12/29 08:53:59;;;;;;;2.57;1.70;;;8.60;99.90;;;;;;5117412;28;20510;-46
2021/12/29 08:56:27;;;;;;;2.50;1.53;;;8.70;99.90;;;;;;5117809;28;20464;-46
2021/12/29 08:58:53;;;;;;;2.60;1.20;;;8.80;99.90;;;;;;5118246;28;20497;-47
2021/12/29 09:01:20;;;;;;;2.27;1.00;;;8.80;99.90;;;;;;5100024;28;20474;-46
2021/12/29 09:03:48;;;;;;;2.57;1.07;;;8.80;99.90;;;;;;5099664;28;20437;-46
2021/12/29 09:06:13;;;;;;;3.67;1.20;;;8.80;99.90;;;;;;5117743;28;20437;-46
2021/12/29 09:08:41;;;;;;;3.40;1.17;;;8.90;99.90;;;;;;5117501;28;20857;-46
2021/12/29 09:11:07;;;;;;;3.13;1.30;;;8.90;99.90;;;;;;5117250;28;20554;-46
2021/12/29 09:13:34;;;;;;;3.20;1.27;;;9.00;99.90;;;;;;5115035;28;20478;-46
2021/12/29 09:16:00;;;;;;;4.00;1.43;;;9.20;99.90;;;;;;5114526;28;20426;-46
2021/12/29 09:18:27;;;;;;;2.83;1.63;;;9.30;99.90;;;;;;5097372;28;20774;-45
2021/12/29 09:20:55;;;;;;;3.00;1.77;;;9.40;99.90;;;;;;5115297;28;20448;-45
2021/12/29 09:23:21;;;;;;;3.80;2.40;;;9.50;99.90;;;;;;5116529;28;20471;-45
2021/12/29 09:25:48;;;;;;;2.60;1.77;;;9.60;99.90;;;;;;5118051;28;20459;-45
2021/12/29 09:28:18;;;;;;;4.67;2.30;;;9.80;99.90;;;;;;5117723;28;20429;-45
2021/12/29 09:30:46;;;;;;;4.80;1.60;;;10.00;99.90;;;;;;5117282;28;20425;-47
2021/12/29 09:33:13;;;;;;;3.50;1.60;;;10.40;99.90;;;;;;5116504;28;20483;-46
2021/12/29 09:35:39;;;;;;;2.47;1.00;;;10.50;99.90;;;;;;5099677;28;20552;-46
2021/12/29 09:38:06;;;;;;;1.63;0.80;;;10.60;98.80;;;;;;5117208;28;20504;-47
2021/12/29 09:40:36;;;;;;;3.57;1.07;;;10.60;97.90;;;;;;5116265;28;20580;-46
2021/12/29 09:43:02;;;;;;;1.40;0.93;;;10.30;97.80;;;;;;5114555;28;20728;-46
2021/12/29 09:45:28;;;;;;;2.23;0.77;;;10.30;97.90;;;;;;5114066;28;20428;-46
2021/12/29 09:47:57;;;;;;;3.57;0.80;;;10.10;98.30;;;;;;5115992;28;20462;-46
2021/12/29 09:50:24;;;;;;;2.13;0.90;;;10.10;98.30;;;;;;5117006;28;20191;-47
2021/12/29 09:52:50;;;;;;;4.13;1.40;;;10.00;98.40;;;;;;5116586;28;20691;-46
2021/12/29 09:55:18;;;;;;;3.53;1.40;;;9.90;99.10;;;;;;5116076;28;20424;-46
2021/12/29 09:57:46;;;;;;;3.33;1.17;;;9.80;99.00;;;;;;5083532;28;20440;-46
2021/12/29 10:00:29;;;;;;;2.30;1.10;;;9.80;99.40;;;;;;5115910;28;20941;-46
2021/12/29 10:02:57;;;;;;;2.93;1.13;;;9.60;99.40;;;;;;5116661;28;20511;-46
2021/12/29 10:05:26;;;;;;;2.03;0.73;;;9.60;99.80;;;;;;5116212;28;20431;-45
2021/12/29 10:08:06;;;;;;;3.33;1.27;;;9.60;99.40;;;;;;5099416;28;20430;-45
2021/12/29 10:10:34;;;;;;;2.30;1.17;;;9.80;99.60;;;;;;5115304;28;20525;-45
2021/12/29 10:13:00;;;;;;;3.10;1.27;;;9.90;99.00;;;;;;5097969;28;20426;-46
2021/12/29 10:15:32;;;;;;;2.40;0.90;;;9.90;98.70;;;;;;5117274;28;20483;-46
2021/12/29 10:18:07;;;;;;;1.97;0.90;;;9.80;98.60;;;;;;5115462;28;20472;-46
2021/12/29 10:20:33;;;;;;;3.30;1.33;;;9.70;98.80;;;;;;5116424;28;20428;-47
2021/12/29 10:23:01;;;;;;;2.10;0.90;;;9.70;98.90;;;;;;5116654;28;20508;-46
2021/12/29 10:25:32;;;;;;;4.73;1.50;;;9.70;99.00;;;;;;5117167;28;20428;-47
2021/12/29 10:28:00;;;;;;;3.33;1.40;;;9.80;99.30;;;;;;5099115;28;20463;-46
2021/12/29 10:30:29;;;;;;;2.80;1.20;;;9.90;99.40;;;;;;5115842;28;20427;-46
2021/12/29 10:32:56;;;;;;;3.00;1.33;;;9.70;99.40;;;;;;5116222;28;20441;-46
2021/12/29 10:35:31;;;;;;;2.77;1.30;;;9.70;99.80;;;;;;5116230;28;20451;-46
2021/12/29 10:38:10;;;;;;;3.10;1.20;;;9.50;99.90;;;;;;5117807;28;20414;-46
2021/12/29 10:40:36;;;;;;;3.10;1.00;;;9.50;99.90;;;;;;5116968;28;20423;-46
2021/12/29 10:43:02;;;;;;;3.20;1.50;;;9.60;99.90;;;;;;5115306;28;20470;-47
2021/12/29 10:45:34;;;;;;;2.83;1.07;;;9.60;99.90;;;;;;5114571;27;20412;-47
2021/12/29 10:48:00;;;;;;;4.57;1.70;;;9.70;99.90;;;;;;5134787;27;20530;-46
2021/12/29 10:50:27;;;;;;;5.03;1.83;;;9.80;99.90;;;;;;5133140;27;20409;-46
2021/12/29 10:52:55;;;;;;;2.47;1.30;;;9.90;99.90;;;;;;5133228;27;20415;-47
2021/12/29 10:55:31;;;;;;;1.60;0.93;;;10.00;99.00;;;;;;5114256;27;20488;-46
2021/12/29 10:58:06;;;;;;;2.90;1.20;;;10.10;98.70;;;;;;5095242;28;20534;-46
2021/12/29 11:00:34;;;;;;;3.80;0.90;;;10.00;98.60;;;;;;5114292;28;20717;-46
2021/12/29 11:03:20;;;;;;;1.90;0.90;;;9.90;99.40;;;;;;5115486;28;20472;-46
2021/12/29 11:05:48;;;;;;;5.20;1.10;;;9.80;99.70;;;;;;5096138;28;20447;-46
2021/12/29 11:08:16;;;;;;;2.23;1.17;;;9.80;99.90;;;;;;5114920;28;20755;-46
2021/12/29 11:10:43;;;;;;;2.80;1.27;;;9.70;99.90;;;;;;5114634;28;20504;-46
2021/12/29 11:13:09;;;;;;;4.27;1.30;;;9.50;99.90;;;;;;5115514;28;20778;-46
2021/12/29 11:15:39;;;;;;;2.63;1.13;;;9.30;99.90;;;;;;5114818;28;20528;-46
2021/12/29 11:18:10;;;;;;;3.13;1.20;;;9.30;99.90;;;;;;5097294;28;20430;-46
2021/12/29 11:20:36;;;;;;;4.03;1.93;;;9.20;99.90;;;;;;5114714;28;20407;-46
2021/12/29 11:23:10;;;;;;;4.90;1.03;;;9.20;99.90;;;;;;5113915;28;20491;-46
2021/12/29 11:25:38;;;;;;;9.47;1.87;;;9.00;99.90;;;;;;5095186;28;20429;-45
2021/12/29 11:28:05;;;;;;;3.63;2.00;;;9.10;99.90;;;;;;5112707;28;20733;-45
2021/12/29 11:30:31;;;;;;;3.40;1.40;;;9.10;99.90;;;;;;5112597;28;20416;-45
2021/12/29 11:33:11;;;;;;;2.93;1.30;;;9.10;99.90;;;;;;5112373;28;20489;-45
2021/12/29 11:35:42;;;;;;;2.77;1.47;;;9.10;99.90;;;;;;5096234;28;20429;-45
2021/12/29 11:38:08;;;;;;;3.40;1.80;;;9.20;99.90;;;;;;5115128;28;20434;-45
2021/12/29 11:40:39;;;;;;;4.60;1.87;;;9.20;99.90;;;;;;5116371;28;20460;-45
2021/12/29 11:43:05;;;;;;;3.10;1.73;;;9.20;99.90;;;;;;5114660;28;20465;-45
2021/12/29 11:45:33;;;;;;;6.10;2.20;;;9.40;99.90;;;;;;5116686;28;20435;-46
2021/12/29 11:47:59;;;;;;;2.40;1.80;;;9.50;99.90;;;;;;5115013;28;20466;-46
2021/12/29 11:50:36;;;;;;;4.53;2.43;;;9.60;99.90;;;;;;5096298;28;20417;-46
2021/12/29 11:53:10;;;;;;;5.00;2.17;;;9.60;99.90;;;;;;5096267;28;20204;-45
2021/12/29 11:55:48;;;;;;;7.67;2.73;;;9.60;99.90;;;;;;5097137;28;20450;-45
2021/12/29 11:58:29;;;;;;;6.00;2.33;;;9.60;99.90;;;;;;5115148;28;20437;-45
2021/12/29 12:01:12;;;;;;;8.30;2.10;;;9.60;99.90;;;;;;5115397;28;20430;-46
2021/12/29 12:03:46;;;;;;;5.63;2.23;;;9.70;99.90;;;;;;5114761;28;20493;-46
2021/12/29 12:06:21;;;;;;;3.50;1.77;;;9.80;99.90;;;;;;5116071;28;20404;-47
2021/12/29 12:08:48;;;;;;;5.70;2.10;;;9.70;99.90;;;;;;5116711;28;20815;-46
2021/12/29 12:11:27;;;;;;;6.50;2.60;;;9.70;99.90;;;;;;5115982;28;20497;-49
2021/12/29 12:13:53;;;;;;;7.60;2.67;;;9.60;99.90;;;;;;5098351;28;20427;-46
2021/12/29 12:16:19;;;;;;;4.73;2.03;;;9.60;99.90;;;;;;5098925;28;20417;-46
2021/12/29 12:18:54;;;;;;;8.77;2.10;;;9.60;99.90;;;;;;5116229;28;20420;-46
2021/12/29 12:21:28;;;;;;;9.17;2.23;;;9.50;99.90;;;;;;5113754;28;20412;-46
2021/12/29 12:23:56;;;;;;;5.43;2.10;;;9.50;99.90;;;;;;5114118;28;20451;-46
2021/12/29 12:26:25;;;;;;;7.40;2.30;;;9.50;99.90;;;;;;5095490;28;21005;-46
2021/12/29 12:28:53;;;;;;;10.30;2.70;;;9.50;99.90;;;;;;5113475;28;20423;-46
2021/12/29 12:31:22;;;;;;;4.93;2.13;;;9.60;99.90;;;;;;5112402;28;20447;-46
2021/12/29 12:33:48;;;;;;;6.90;2.03;;;9.60;99.90;;;;;;5118247;28;20425;-46
2021/12/29 12:36:18;;;;;;;5.30;2.23;;;9.40;99.90;;;;;;5117527;28;20498;-46
2021/12/29 12:38:43;;;;;;;3.70;2.13;;;9.40;99.90;;;;;;5118012;28;20588;-46
2021/12/29 12:41:18;;;;;;;5.93;2.17;;;9.30;99.90;;;;;;5118463;28;20433;-46
2021/12/29 12:43:58;;;;;;;7.33;2.00;;;9.20;99.90;;;;;;5119874;28;20202;-46
2021/12/29 12:46:38;;;;;;;6.90;2.27;;;9.30;99.90;;;;;;5116581;28;20614;-46
2021/12/29 12:49:23;;;;;;;11.53;2.73;;;9.40;99.90;;;;;;5118016;28;20413;-46
2021/12/29 12:52:05;;;;;;;12.27;2.50;;;9.50;99.90;;;;;;5116385;28;20504;-46
2021/12/29 12:54:36;;;;;;;6.97;2.50;;;9.60;99.90;;;;;;5116960;28;20481;-46
2021/12/29 12:57:06;;;;;;;8.20;2.40;;;9.70;99.90;;;;;;5118225;28;20422;-46
2021/12/29 12:59:37;;;;;;;7.33;3.00;;;9.70;99.90;;;;;;5101078;28;20442;-46
2021/12/29 13:02:14;;;;;;;10.00;2.63;;;9.60;99.90;;;;;;5118824;28;20464;-46
2021/12/29 13:05:02;;;;;;;9.63;2.80;;;9.60;99.90;;;;;;5117493;28;20690;-46
2021/12/29 13:07:28;;;;;;;6.07;2.43;;;9.50;99.90;;;;;;5118929;28;20401;-46